Accueil
METAR-TAF:

METAR-TAF

Aéroports :

Wattisham, Angleterre

latitude: 52-07N, longitude: 000-58E, altitude: 87 m

Observation

Le bulletin a été fait il y a 49 minutes, à 19:21 UTC
Vent 3 kt de nord
Température 3°C
Humidité 100%
Pression 1021 hPa
Visibilité: 0300 m
Ciel clair
brouillard

METAR: EGUW 261921Z 36003KT 0300 FG SKC 03/03 Q1021 RED

Heure: 20:10 (20:10 UTC)

Prévision

Le bulletin a été fait il y a 2 heures et 59 minutes, à 17:11 UTC
Prévision valable du 26 à 18 UTC au 27 à 03 UTC
Vent 4 kt de nord/nord-ouest
Visibilité: 4000 m
brume
Evoluant progressivement
du 26 à 18 UTC au 26 à 20 UTC
Visibilité: 2000 m
brume
Evoluant progressivement
du 26 à 19 UTC au 26 à 22 UTC
Visibilité: 0500 m
brouillard

TAF: EGUW 261711Z 2618/2703 34004KT 4000 BR NSC BECMG 2618/2620 2000 BR BECMG 2619/2622 0500 FG VV///

Observations et prévisions météorologiques de plus de 4000 aéroports (messages METAR et TAF).

Les stations disponibles sont représentées par des disques jaunes et rouges sur la carte.

Passer la souris dessus pour voir le nom de la station.

Cliquer dessus pour voir les observations et prévisions météorologiques.

Pour changer de carte: cliquez sur les boutons verts avec une croix noire pour zoomer, sur le bouton vert avec un tiret pour effectuer un zoom arrière, ou sur les flèches vertes pour les cartes adjacentes.


METAR-TAF: